Time;durP1;ratioP1;P1;durP2;ratioP2;P2;SDS_P1;SDS_P2;PMS_P1;PMS_P2;Temp;Humidity;BMP_temperature;BMP_pressure;BME280_temperature;BME280_humidity;BME280_pressure;Samples;Min_cycle;Max_cycle;Signal;HPM_P1;HPM_P2
2021/05/08 00:01:04;;;;;;;5.93;4.20;;;;;;;7.95;100.00;98409.50;5044908;28;20211;-69
2021/05/08 00:03:31;;;;;;;5.73;4.00;;;;;;;8.16;99.50;98399.91;5033518;28;20752;-69
2021/05/08 00:05:59;;;;;;;8.07;3.87;;;;;;;8.37;97.52;98407.28;5041321;28;20320;-69
2021/05/08 00:08:25;;;;;;;5.67;3.80;;;;;;;8.06;100.00;98409.94;5047005;28;20747;-70
2021/05/08 00:10:52;;;;;;;7.63;5.13;;;;;;;8.12;100.00;98414.56;5038703;28;20225;-69
2021/05/08 00:13:19;;;;;;;6.43;4.17;;;;;;;8.34;98.93;98410.28;5033487;28;20237;-69
2021/05/08 00:15:47;;;;;;;8.17;4.33;;;;;;;8.18;98.54;98413.03;5046327;28;20205;-69
2021/05/08 00:18:13;;;;;;;5.07;4.10;;;;;;;8.14;99.32;98404.59;5050782;28;20302;-70
2021/05/08 00:20:40;;;;;;;7.27;4.27;;;;;;;8.18;98.28;98411.19;5044842;28;20202;-69
2021/05/08 00:23:07;;;;;;;6.47;4.17;;;;;;;7.95;100.00;98415.66;5054163;28;20225;-69
2021/05/08 00:25:34;;;;;;;5.97;3.97;;;;;;;8.21;98.63;98410.03;5044049;28;20201;-70
2021/05/08 00:28:01;;;;;;;6.27;4.17;;;;;;;8.22;97.19;98417.03;5050887;28;20218;-69
2021/05/08 00:30:28;;;;;;;7.10;4.17;;;;;;;8.34;96.45;98410.28;5055218;28;20236;-69
2021/05/08 00:32:55;;;;;;;6.17;4.07;;;;;;;8.25;97.78;98408.69;5056454;28;20640;-69
2021/05/08 00:35:22;;;;;;;6.50;4.07;;;;;;;8.04;97.99;98413.78;5040864;28;20208;-69
2021/05/08 00:37:49;;;;;;;7.10;4.10;;;;;;;8.34;95.89;98410.28;5049401;28;20253;-69
2021/05/08 00:40:16;;;;;;;6.70;4.30;;;;;;;8.21;96.71;98412.69;5050498;28;20281;-69
2021/05/08 00:42:43;;;;;;;6.13;3.97;;;;;;;8.17;97.91;98408.72;5046932;28;20740;-69
2021/05/08 00:45:10;;;;;;;6.20;4.07;;;;;;;8.23;97.29;98411.53;5041805;28;20582;-69
2021/05/08 00:47:41;;;;;;;5.30;3.90;;;;;;;8.02;100.00;98405.16;5053165;28;20213;-69
2021/05/08 00:50:11;;;;;;;5.03;3.33;;;;;;;8.18;99.06;98403.22;5058611;28;20762;-70
2021/05/08 00:52:38;;;;;;;5.43;4.13;;;;;;;8.20;98.80;98403.91;5050241;28;20209;-69
2021/05/08 00:55:06;;;;;;;7.40;4.43;;;;;;;8.13;98.90;98394.94;5045163;28;20202;-69
2021/05/08 00:57:33;;;;;;;5.97;4.10;;;;;;;7.74;100.00;98414.59;5040603;28;20718;-69
2021/05/08 01:00:00;;;;;;;8.67;4.90;;;;;;;8.04;99.84;98405.81;5051103;28;20205;-69
2021/05/08 01:02:27;;;;;;;11.97;5.00;;;;;;;7.88;99.74;98393.47;5047412;28;20200;-69
2021/05/08 01:04:55;;;;;;;7.37;4.40;;;;;;;7.93;98.96;98401.75;5052785;28;20668;-70
2021/05/08 01:07:23;;;;;;;7.97;5.20;;;;;;;8.00;98.65;98408.00;5042549;28;20292;-69
2021/05/08 01:09:49;;;;;;;8.30;4.57;;;;;;;8.05;98.18;98405.63;5045515;28;20575;-69
2021/05/08 01:12:16;;;;;;;7.10;4.90;;;;;;;8.22;96.59;98409.06;5044950;28;20236;-69
2021/05/08 01:14:43;;;;;;;7.63;3.97;;;;;;;8.20;95.77;98406.56;5037866;28;20230;-70
2021/05/08 01:17:10;;;;;;;7.23;4.33;;;;;;;8.04;98.68;98405.81;5042278;28;20242;-70
2021/05/08 01:19:37;;;;;;;8.13;4.30;;;;;;;7.90;99.44;98404.72;5046627;28;20681;-70
2021/05/08 01:22:05;;;;;;;7.70;4.43;;;;;;;7.89;100.00;98407.56;5047781;28;20267;-70
2021/05/08 01:24:32;;;;;;;12.30;4.87;;;;;;;7.77;100.00;98416.94;5046991;28;20223;-70
2021/05/08 01:26:58;;;;;;;7.10;4.73;;;;;;;7.75;100.00;98408.28;5050287;28;20202;-69
2021/05/08 01:29:25;;;;;;;10.00;5.07;;;;;;;7.69;100.00;98408.97;5049465;28;20650;-70
2021/05/08 01:31:52;;;;;;;8.47;4.80;;;;;;;7.54;100.00;98410.69;5048769;28;20205;-70
2021/05/08 01:34:19;;;;;;;5.77;4.43;;;;;;;7.79;100.00;98401.63;5036537;28;20238;-69
2021/05/08 01:36:46;;;;;;;8.63;4.70;;;;;;;7.68;100.00;98394.88;5045577;28;20210;-70
2021/05/08 01:39:13;;;;;;;8.00;4.70;;;;;;;7.73;100.00;98397.00;5051319;28;20313;-69
2021/05/08 01:41:40;;;;;;;7.87;4.67;;;;;;;7.74;100.00;98396.84;5045560;28;20205;-70
2021/05/08 01:44:09;;;;;;;8.57;4.73;;;;;;;7.82;100.00;98398.63;5042937;28;20244;-69
2021/05/08 01:46:36;;;;;;;7.43;4.27;;;;;;;7.70;100.00;98395.53;5045638;28;20213;-70
2021/05/08 01:49:04;;;;;;;9.87;4.77;;;;;;;7.39;100.00;98394.66;5045686;28;20681;-69
2021/05/08 01:51:31;;;;;;;7.90;4.97;;;;;;;7.63;100.00;98391.09;5048640;28;20218;-70
2021/05/08 01:53:57;;;;;;;7.20;4.03;;;;;;;7.67;100.00;98387.09;5040902;28;20230;-69
2021/05/08 01:56:25;;;;;;;6.90;4.97;;;;;;;7.57;100.00;98383.81;5044957;28;20576;-70
2021/05/08 01:58:52;;;;;;;6.77;4.70;;;;;;;7.60;100.00;98386.09;5042525;28;20761;-70
2021/05/08 02:01:19;;;;;;;6.80;4.43;;;;;;;7.60;100.00;98383.44;5048157;28;20229;-69
2021/05/08 02:03:46;;;;;;;8.93;5.43;;;;;;;7.57;100.00;98379.31;5046930;28;20235;-70
2021/05/08 02:06:12;;;;;;;9.57;5.10;;;;;;;7.36;100.00;98379.06;5052987;28;20712;-70
2021/05/08 02:08:39;;;;;;;7.70;4.50;;;;;;;7.43;100.00;98374.75;5049708;28;20209;-69
2021/05/08 02:11:06;;;;;;;6.73;4.53;;;;;;;7.50;100.00;98374.88;5051587;28;20322;-69
2021/05/08 02:13:34;;;;;;;7.23;4.90;;;;;;;7.61;100.00;98374.50;5051603;28;20234;-70
2021/05/08 02:16:01;;;;;;;8.73;5.10;;;;;;;7.62;100.00;98368.19;5043403;28;20689;-71
2021/05/08 02:18:27;;;;;;;7.07;4.50;;;;;;;7.59;100.00;98369.38;5044315;28;20211;-69
2021/05/08 02:20:54;;;;;;;6.83;4.60;;;;;;;7.43;100.00;98376.56;5052606;28;20253;-69
2021/05/08 02:23:21;;;;;;;5.63;4.20;;;;;;;7.33;100.00;98376.78;5049787;28;20236;-70
2021/05/08 02:25:48;;;;;;;7.93;4.37;;;;;;;7.26;100.00;98373.13;5051799;28;20587;-69
2021/05/08 02:28:15;;;;;;;8.07;5.20;;;;;;;7.13;100.00;98370.22;5050519;28;20202;-71
2021/05/08 02:30:43;;;;;;;7.03;5.03;;;;;;;7.28;100.00;98368.50;5053432;28;20697;-70
2021/05/08 02:33:10;;;;;;;8.97;4.80;;;;;;;7.18;100.00;98369.69;5045593;28;20656;-69
2021/05/08 02:35:38;;;;;;;7.37;4.77;;;;;;;7.17;100.00;98368.03;5058132;28;20284;-70
2021/05/08 02:38:05;;;;;;;7.67;4.63;;;;;;;7.47;100.00;98372.56;5052598;28;20210;-70
2021/05/08 02:40:34;;;;;;;8.73;5.37;;;;;;;7.19;100.00;98360.72;5051586;28;20211;-70
2021/05/08 02:43:01;;;;;;;6.50;4.67;;;;;;;7.41;100.00;98368.75;5049393;28;20666;-69
2021/05/08 02:45:28;;;;;;;6.47;4.63;;;;;;;7.38;100.00;98365.63;5044493;28;20203;-70
2021/05/08 02:47:55;;;;;;;8.97;4.73;;;;;;;7.10;100.00;98367.06;5047302;28;20292;-70
2021/05/08 02:50:24;;;;;;;8.50;4.97;;;;;;;7.28;100.00;98363.19;5049602;28;20614;-70
2021/05/08 02:52:51;;;;;;;6.53;4.87;;;;;;;7.38;100.00;98360.31;5058956;28;20233;-70
2021/05/08 02:55:18;;;;;;;6.87;4.57;;;;;;;7.28;100.00;98368.50;5057064;28;20207;-70
2021/05/08 02:57:45;;;;;;;10.87;5.07;;;;;;;7.35;100.00;98366.81;5047652;28;20306;-69
2021/05/08 03:00:14;;;;;;;8.07;4.47;;;;;;;7.26;100.00;98365.16;5045522;28;20205;-69
2021/05/08 03:02:41;;;;;;;7.47;4.90;;;;;;;7.39;100.00;98368.13;5041920;28;20225;-69
2021/05/08 03:05:10;;;;;;;9.37;4.77;;;;;;;7.34;100.00;98365.16;5056892;28;20227;-69
2021/05/08 03:07:37;;;;;;;10.23;4.37;;;;;;;7.49;100.00;98367.91;5052436;28;20212;-69
2021/05/08 03:10:04;;;;;;;8.53;4.13;;;;;;;7.41;100.00;98370.63;5053749;28;20277;-69
2021/05/08 03:12:31;;;;;;;7.03;4.57;;;;;;;7.46;100.00;98370.94;5054810;28;20205;-69
2021/05/08 03:14:58;;;;;;;7.40;4.30;;;;;;;7.63;99.44;98354.75;5045303;28;20203;-69
2021/05/08 03:17:25;;;;;;;14.30;4.73;;;;;;;7.64;99.02;98353.72;5048616;28;20564;-70
2021/05/08 03:19:52;;;;;;;7.17;4.27;;;;;;;7.65;98.51;98357.19;5050759;28;20294;-69
2021/05/08 03:22:19;;;;;;;6.13;4.03;;;;;;;7.51;99.48;98361.41;5044120;28;20550;-70
2021/05/08 03:24:46;;;;;;;6.50;4.07;;;;;;;7.64;99.47;98361.69;5039873;28;20218;-69
2021/05/08 03:27:13;;;;;;;9.50;4.47;;;;;;;7.49;100.00;98363.44;5043002;28;20731;-70
2021/05/08 03:29:40;;;;;;;5.90;3.77;;;;;;;7.46;100.00;98355.00;5050375;28;20231;-69
2021/05/08 03:32:07;;;;;;;6.30;3.77;;;;;;;7.32;100.00;98351.22;5041516;28;20224;-70
2021/05/08 03:34:33;;;;;;;6.97;3.90;;;;;;;7.30;100.00;98347.09;5044684;28;20229;-69
2021/05/08 03:37:00;;;;;;;6.20;3.37;;;;;;;7.30;100.00;98353.22;5046668;28;20291;-69
2021/05/08 03:39:28;;;;;;;10.33;4.50;;;;;;;7.21;100.00;98359.56;5050534;28;20205;-70
2021/05/08 03:41:55;;;;;;;6.63;4.13;;;;;;;7.38;100.00;98355.00;5036688;28;20559;-69
2021/05/08 03:44:21;;;;;;;7.60;4.00;;;;;;;7.34;100.00;98348.38;5037690;28;20761;-69
2021/05/08 03:46:49;;;;;;;8.20;4.10;;;;;;;7.42;100.00;98353.69;5059517;28;20209;-69
2021/05/08 03:49:16;;;;;;;4.97;3.43;;;;;;;7.40;100.00;98345.03;5043726;28;20299;-71
2021/05/08 03:51:43;;;;;;;5.50;3.70;;;;;;;7.16;100.00;98351.28;5048835;28;20741;-70
2021/05/08 03:54:10;;;;;;;6.50;3.57;;;;;;;7.11;100.00;98345.66;5042089;28;20226;-69
2021/05/08 03:56:38;;;;;;;7.63;4.13;;;;;;;7.30;100.00;98355.88;5047762;28;20569;-69
2021/05/08 03:59:05;;;;;;;5.77;4.13;;;;;;;7.39;100.00;98349.53;5050321;28;20629;-69
2021/05/08 04:01:31;;;;;;;5.20;3.70;;;;;;;7.51;100.00;98350.78;5053631;28;20197;-69
2021/05/08 04:03:58;;;;;;;5.90;3.30;;;;;;;7.51;100.00;98350.78;5037325;28;20234;-70
2021/05/08 04:06:26;;;;;;;6.87;4.23;;;;;;;7.60;100.00;98347.09;5053218;28;20210;-70
2021/05/08 04:08:53;;;;;;;6.33;3.63;;;;;;;7.58;100.00;98346.47;5044976;28;20572;-69
2021/05/08 04:11:20;;;;;;;6.10;3.40;;;;;;;7.53;100.00;98347.97;5044381;28;20226;-70
2021/05/08 04:13:47;;;;;;;7.63;3.53;;;;;;;7.69;100.00;98346.06;5046933;28;20249;-70
2021/05/08 04:16:14;;;;;;;4.30;3.30;;;;;;;7.77;99.18;98343.34;5074858;22;20260;-66
2021/05/08 04:18:41;;;;;;;5.73;3.80;;;;;;;7.73;99.30;98331.44;5052760;28;20208;-67
2021/05/08 04:21:08;;;;;;;5.43;3.40;;;;;;;7.83;99.38;98331.22;5042036;28;20199;-66
2021/05/08 04:23:35;;;;;;;6.43;3.30;;;;;;;7.80;100.00;98331.53;5042979;28;20249;-65
2021/05/08 04:26:01;;;;;;;4.87;3.00;;;;;;;7.91;98.64;98331.97;5047646;28;20682;-66
2021/05/08 04:28:28;;;;;;;9.37;4.07;;;;;;;7.96;97.84;98326.16;5036718;28;20198;-65
2021/05/08 04:30:56;;;;;;;7.13;3.60;;;;;;;7.90;98.63;98330.31;5031473;28;20696;-66
2021/05/08 04:33:23;;;;;;;7.17;3.37;;;;;;;8.09;97.72;98331.69;5038258;28;20217;-66
2021/05/08 04:35:49;;;;;;;5.07;3.10;;;;;;;8.20;96.20;98333.94;5030141;28;20221;-66
2021/05/08 04:38:16;;;;;;;7.30;3.40;;;;;;;8.33;93.71;98329.69;5036738;28;20205;-66
2021/05/08 04:40:43;;;;;;;5.43;3.33;;;;;;;7.84;94.05;98336.34;5034915;28;20203;-66
2021/05/08 04:43:10;;;;;;;7.40;3.63;;;;;;;8.16;91.52;98333.47;5033220;28;20206;-66
2021/05/08 04:45:37;;;;;;;4.97;2.87;;;;;;;8.74;89.01;98327.50;5033439;28;20234;-66
2021/05/08 04:48:05;;;;;;;3.50;2.50;;;;;;;8.79;85.69;98336.56;5043121;28;20210;-66
2021/05/08 04:50:32;;;;;;;4.60;2.80;;;;;;;8.89;84.17;98339.78;5040360;28;20238;-66
2021/05/08 04:52:59;;;;;;;3.63;2.60;;;;;;;9.02;82.19;98344.47;5029439;28;20206;-66
2021/05/08 04:55:25;;;;;;;3.57;2.50;;;;;;;9.32;82.38;98325.69;5036189;28;20234;-66
2021/05/08 04:57:52;;;;;;;3.93;2.47;;;;;;;9.50;79.94;98341.28;5034937;28;20208;-66
2021/05/08 05:00:19;;;;;;;6.83;2.53;;;;;;;9.56;77.97;98345.84;5034536;28;20248;-65
2021/05/08 05:02:47;;;;;;;4.17;2.33;;;;;;;9.12;80.93;98337.91;5028216;28;20213;-66
2021/05/08 05:05:16;;;;;;;4.83;2.40;;;;;;;9.59;77.54;98345.50;5033823;28;20260;-66
2021/05/08 05:07:44;;;;;;;5.00;2.87;;;;;;;9.80;77.64;98343.66;5036462;28;20302;-65
2021/05/08 05:10:12;;;;;;;8.53;2.50;;;;;;;9.59;77.54;98340.97;5035900;28;20223;-66
2021/05/08 05:12:39;;;;;;;5.03;2.37;;;;;;;9.79;74.71;98346.56;5031470;28;20677;-66
2021/05/08 05:15:07;;;;;;;4.00;2.27;;;;;;;10.30;73.29;98350.81;5031328;28;20203;-65
2021/05/08 05:17:34;;;;;;;2.90;2.03;;;;;;;10.26;72.77;98344.22;5035518;28;20216;-65
2021/05/08 05:20:00;;;;;;;16.20;3.07;;;;;;;10.55;70.02;98352.88;5032947;28;20570;-66
2021/05/08 05:22:28;;;;;;;5.20;2.80;;;;;;;10.32;69.14;98356.78;5036442;28;20208;-66
2021/05/08 05:24:55;;;;;;;5.83;2.50;;;;;;;10.51;67.58;98364.16;5032210;28;20721;-66
2021/05/08 05:27:22;;;;;;;4.93;2.57;;;;;;;10.59;66.14;98364.84;5034565;28;20314;-65
2021/05/08 05:29:49;;;;;;;4.30;2.80;;;;;;;10.83;64.97;98366.25;5034766;28;20594;-66
2021/05/08 05:32:15;;;;;;;8.27;2.33;;;;;;;10.97;64.32;98374.16;5035512;28;20620;-66
2021/05/08 05:34:42;;;;;;;4.27;2.33;;;;;;;10.88;62.82;98377.19;5031176;28;20214;-65
2021/05/08 05:37:09;;;;;;;3.90;2.27;;;;;;;11.33;60.53;98380.19;5038906;28;20231;-66
2021/05/08 05:39:37;;;;;;;3.40;2.60;;;;;;;11.44;61.66;98370.78;5028158;28;20224;-65
2021/05/08 05:42:04;;;;;;;3.80;2.53;;;;;;;11.30;59.51;98374.38;5038011;28;20210;-66
2021/05/08 05:44:31;;;;;;;4.63;3.00;;;;;;;11.53;60.65;98373.09;5026827;28;20207;-66
2021/05/08 05:46:57;;;;;;;3.60;2.30;;;;;;;11.61;57.73;98382.00;5035627;28;20598;-66
2021/05/08 05:49:24;;;;;;;4.73;2.37;;;;;;;11.50;58.18;98373.50;5037546;28;20212;-66
2021/05/08 05:51:51;;;;;;;4.60;2.50;;;;;;;11.41;60.67;98373.84;5032618;28;20236;-65
2021/05/08 05:54:18;;;;;;;4.20;2.10;;;;;;;11.87;58.65;98374.09;5030646;28;20203;-67
2021/05/08 05:56:46;;;;;;;3.03;2.33;;;;;;;12.27;57.38;98370.50;5031916;28;20727;-67
2021/05/08 05:59:13;;;;;;;7.07;2.90;;;;;;;12.21;56.10;98377.50;5032421;28;20215;-67
2021/05/08 06:01:40;;;;;;;5.40;2.77;;;;;;;12.57;55.71;98372.59;5037433;28;20240;-67
2021/05/08 06:04:06;;;;;;;3.03;2.27;;;;;;;11.92;56.88;98367.13;5034965;28;20823;-67
2021/05/08 06:06:33;;;;;;;7.03;2.47;;;;;;;12.54;55.17;98370.34;5034046;28;20230;-67
2021/05/08 06:09:00;;;;;;;4.30;2.47;;;;;;;12.63;54.82;98371.81;5030702;28;20540;-67
2021/05/08 06:11:27;;;;;;;4.13;2.53;;;;;;;13.07;52.65;98374.72;5030296;28;20222;-72
2021/05/08 06:13:54;;;;;;;4.27;2.70;;;;;;;12.80;55.09;98373.03;5030601;28;20217;-65
2021/05/08 06:16:21;;;;;;;5.70;2.53;;;;;;;13.18;53.56;98373.28;5031333;28;20608;-65
2021/05/08 06:18:48;;;;;;;2.90;2.50;;;;;;;12.66;54.27;98378.63;5032484;28;20201;-69
2021/05/08 06:21:15;;;;;;;5.77;2.73;;;;;;;13.21;52.63;98381.72;5031953;28;20199;-69
2021/05/08 06:23:42;;;;;;;5.47;2.53;;;;;;;12.97;52.19;98381.53;5027763;28;20214;-68
2021/05/08 06:26:08;;;;;;;3.33;2.20;;;;;;;12.88;53.15;98379.03;5023940;28;20223;-67
2021/05/08 06:28:35;;;;;;;4.47;2.27;;;;;;;12.76;53.08;98373.69;5023671;28;20206;-68
2021/05/08 06:31:03;;;;;;;5.33;2.40;;;;;;;12.82;53.96;98375.53;5028199;28;20226;-71
2021/05/08 06:33:30;;;;;;;4.63;2.50;;;;;;;12.47;54.28;98374.06;5033944;28;20231;-72
2021/05/08 06:35:56;;;;;;;5.13;2.43;;;;;;;12.69;54.16;98377.16;5035147;28;20222;-71
2021/05/08 06:38:24;;;;;;;4.03;2.30;;;;;;;13.39;51.36;98381.06;5030356;28;20240;-69
2021/05/08 06:40:51;;;;;;;4.37;2.30;;;;;;;13.55;50.76;98377.94;5027978;28;20298;-70
2021/05/08 06:43:17;;;;;;;3.70;1.93;;;;;;;13.70;50.47;98379.34;5024193;28;20284;-69
2021/05/08 06:45:44;;;;;;;3.27;2.20;;;;;;;14.02;50.14;98378.38;5031563;28;20698;-67
2021/05/08 06:48:13;;;;;;;7.10;2.63;;;;;;;12.56;53.25;98379.00;5032039;28;20206;-67
2021/05/08 06:50:44;;;;;;;3.17;2.10;;;;;;;13.39;50.74;98383.75;5030387;28;20222;-67
2021/05/08 06:53:11;;;;;;;3.47;2.37;;;;;;;14.08;48.43;98382.88;5033309;28;20257;-68
2021/05/08 06:55:38;;;;;;;3.77;2.50;;;;;;;13.39;49.61;98383.75;5027148;28;20710;-69
2021/05/08 06:58:05;;;;;;;3.30;2.53;;;;;;;13.72;49.63;98376.44;5031704;28;20215;-73
2021/05/08 07:00:32;;;;;;;4.57;2.47;;;;;;;13.57;51.33;98368.63;5034071;28;20314;-78
2021/05/08 07:02:58;;;;;;;5.70;2.37;;;;;;;13.36;50.81;98366.22;5037222;28;20570;-77
2021/05/08 07:05:28;;;;;;;4.33;2.20;;;;;;;14.54;46.66;98366.56;5036133;28;20218;-72
2021/05/08 07:08:01;;;;;;;4.90;2.30;;;;;;;13.86;48.25;98370.81;5031746;28;20216;-68
2021/05/08 07:10:28;;;;;;;4.07;2.23;;;;;;;14.50;47.88;98357.28;5033348;28;20320;-70
2021/05/08 07:12:55;;;;;;;3.17;2.03;;;;;;;14.40;46.79;98359.63;5044729;28;20212;-66
2021/05/08 07:15:21;;;;;;;3.07;2.30;;;;;;;14.35;47.85;98349.53;5032849;28;20208;-66
2021/05/08 07:18:00;;;;;;;4.53;2.30;;;;;;;15.32;43.55;98360.50;5031015;28;20211;-67
2021/05/08 07:20:27;;;;;;;3.37;2.07;;;;;;;15.12;43.27;98358.03;5029784;28;20259;-67
2021/05/08 07:22:54;;;;;;;2.17;1.83;;;;;;;14.94;45.29;98357.97;5034648;28;20252;-66
2021/05/08 07:25:21;;;;;;;4.23;2.23;;;;;;;16.24;41.06;98361.09;5030265;28;20254;-73
2021/05/08 07:27:48;;;;;;;5.07;2.40;;;;;;;15.24;43.42;98361.63;5040369;28;20591;-72
2021/05/08 07:30:15;;;;;;;2.13;1.70;;;;;;;15.85;40.96;98370.50;5037879;28;20232;-71
2021/05/08 07:32:42;;;;;;;4.60;2.00;;;;;;;16.02;41.03;98371.56;5033144;28;20253;-67
2021/05/08 07:35:10;;;;;;;3.27;1.93;;;;;;;16.75;39.56;98374.88;5034313;28;20685;-66
2021/05/08 07:37:39;;;;;;;2.47;1.90;;;;;;;17.24;38.59;98367.22;5037150;28;20214;-67
2021/05/08 07:40:08;;;;;;;4.03;2.10;;;;;;;17.12;37.90;98376.38;5043092;28;20193;-67
2021/05/08 07:42:34;;;;;;;3.23;1.50;;;;;;;16.53;38.99;98373.78;5037912;28;20262;-67
2021/05/08 07:45:01;;;;;;;5.83;2.20;;;;;;;16.99;38.38;98368.47;5037518;28;20204;-66
2021/05/08 07:47:28;;;;;;;4.10;2.07;;;;;;;15.60;42.74;98360.88;5039599;28;20200;-67
2021/05/08 07:49:55;;;;;;;3.37;1.80;;;;;;;16.29;41.56;98353.97;5038809;28;20216;-67
2021/05/08 07:52:22;;;;;;;2.30;1.60;;;;;;;17.23;37.66;98364.75;5036087;28;20202;-66
2021/05/08 07:54:49;;;;;;;2.30;1.83;;;;;;;17.88;36.32;98368.97;5036024;28;20208;-67
2021/05/08 07:57:16;;;;;;;3.40;1.90;;;;;;;17.79;37.27;98365.78;5033921;28;20240;-65
2021/05/08 07:59:43;;;;;;;2.10;1.90;;;;;;;17.98;36.86;98367.28;5033504;28;20205;-68
2021/05/08 08:02:11;;;;;;;4.20;1.90;;;;;;;17.71;37.25;98368.88;5036311;28;20588;-65
2021/05/08 08:04:37;;;;;;;2.20;1.53;;;;;;;17.16;40.21;98351.38;5037053;28;20234;-64
2021/05/08 08:07:04;;;;;;;6.93;2.23;;;;;;;16.83;41.10;98353.78;5034030;28;20787;-66
2021/05/08 08:09:31;;;;;;;4.07;2.20;;;;;;;16.20;43.89;98343.75;5035910;28;20216;-66
2021/05/08 08:11:59;;;;;;;5.93;1.87;;;;;;;16.13;44.36;98343.03;5033877;28;20699;-66
2021/05/08 08:14:26;;;;;;;6.70;2.10;;;;;;;15.25;46.17;98339.06;5037934;28;20207;-66
2021/05/08 08:16:53;;;;;;;4.37;1.83;;;;;;;16.67;43.21;98341.00;5028906;28;20241;-67
2021/05/08 08:19:20;;;;;;;4.23;1.83;;;;;;;16.64;42.98;98346.03;5033816;28;20206;-69
2021/05/08 08:21:46;;;;;;;4.53;1.83;;;;;;;17.74;39.38;98357.56;5036495;28;20208;-64
2021/05/08 08:24:13;;;;;;;2.63;1.60;;;;;;;17.87;37.21;98370.00;5038531;28;20721;-66
2021/05/08 08:26:40;;;;;;;3.00;1.67;;;;;;;16.23;41.65;98351.38;5036370;28;20717;-68
2021/05/08 08:29:08;;;;;;;2.70;1.77;;;;;;;17.08;40.14;98357.09;5031396;28;20584;-67
2021/05/08 08:31:34;;;;;;;2.83;1.50;;;;;;;16.73;40.18;98350.88;5036010;28;20384;-67
2021/05/08 08:34:01;;;;;;;6.07;1.63;;;;;;;16.67;40.96;98348.28;5036670;28;20204;-66
2021/05/08 08:36:28;;;;;;;2.27;1.70;;;;;;;16.77;41.20;98345.84;5035548;28;20220;-67
2021/05/08 08:38:55;;;;;;;2.67;1.60;;;;;;;17.06;40.47;98345.75;5032563;28;20210;-66
2021/05/08 08:41:22;;;;;;;2.33;1.80;;;;;;;17.45;40.33;98346.94;5040912;28;20205;-66
2021/05/08 08:43:49;;;;;;;2.03;1.50;;;;;;;17.85;37.27;98347.81;5033782;28;20214;-65
2021/05/08 08:46:17;;;;;;;1.50;1.20;;;;;;;19.07;33.26;98372.31;5031218;28;20310;-66
2021/05/08 08:48:44;;;;;;;4.30;1.30;;;;;;;18.10;35.03;98354.56;5034715;28;20271;-65
2021/05/08 08:51:11;;;;;;;2.93;1.33;;;;;;;19.69;32.21;98358.41;5043324;28;20693;-65
2021/05/08 08:53:38;;;;;;;4.30;1.90;;;;;;;18.71;33.19;98361.94;5031813;28;20202;-66
2021/05/08 08:56:06;;;;;;;2.40;1.30;;;;;;;17.89;34.67;98344.38;5036456;28;20693;-65
2021/05/08 08:58:35;;;;;;;2.37;1.40;;;;;;;19.37;32.97;98354.69;5028800;28;20210;-64
2021/05/08 09:01:03;;;;;;;2.30;1.30;;;;;;;19.63;31.99;98359.41;5035396;28;20194;-64
2021/05/08 09:03:31;;;;;;;2.87;1.33;;;;;;;20.33;31.29;98335.09;5035261;28;20209;-67
2021/05/08 09:06:00;;;;;;;1.67;1.10;;;;;;;20.61;30.26;98348.38;5036308;28;20225;-66
2021/05/08 09:08:29;;;;;;;2.83;1.30;;;;;;;20.69;30.41;98347.94;5028799;28;20205;-65
2021/05/08 09:11:16;;;;;;;2.77;1.33;;;;;;;21.42;27.30;98362.44;5037698;28;20260;-65
2021/05/08 09:13:43;;;;;;;1.90;1.27;;;;;;;19.88;29.91;98356.22;5036206;28;20310;-65
2021/05/08 09:16:09;;;;;;;2.23;1.30;;;;;;;19.97;29.27;98347.38;5039464;28;20294;-65
2021/05/08 09:18:39;;;;;;;2.10;1.20;;;;;;;20.32;29.74;98336.97;5037836;28;20209;-65
2021/05/08 09:21:06;;;;;;;3.37;1.20;;;;;;;20.55;28.65;98341.28;5039253;28;20202;-65
2021/05/08 09:23:34;;;;;;;2.27;1.20;;;;;;;21.14;27.60;98332.91;5033153;28;20206;-65
2021/05/08 09:26:04;;;;;;;4.40;1.30;;;;;;;19.85;29.05;98333.16;5034209;28;20596;-65
2021/05/08 09:28:32;;;;;;;3.10;0.90;;;;;;;21.16;28.25;98327.19;5041683;28;20293;-65
2021/05/08 09:30:59;;;;;;;1.60;1.10;;;;;;;19.42;30.23;98326.88;5033884;28;20238;-64
2021/05/08 09:33:27;;;;;;;2.33;0.90;;;;;;;18.39;31.55;98310.28;5033414;28;20212;-65
2021/05/08 09:36:06;;;;;;;0.93;0.80;;;;;;;20.09;30.24;98309.34;5034249;28;20769;-65
2021/05/08 09:38:35;;;;;;;2.70;1.27;;;;;;;21.25;28.29;98317.50;5031112;28;20207;-69
2021/05/08 09:41:03;;;;;;;2.70;1.20;;;16.00;1.00;;;21.27;26.70;98318.88;5034164;28;20307;-67
2021/05/08 09:43:30;;;;;;;1.13;1.03;;;16.10;1.00;;;21.13;27.21;98325.03;5038205;28;20210;-69
2021/05/08 09:45:57;;;;;;;2.57;1.30;;;15.70;1.00;;;18.92;32.18;98301.72;5033859;28;20225;-66
2021/05/08 09:48:27;;;;;;;1.63;1.03;;;15.50;1.00;;;17.72;32.71;98288.69;5033994;28;20269;-66
2021/05/08 09:50:55;;;;;;;1.80;1.20;;;14.60;1.00;;;19.78;31.45;98297.31;5033108;28;20296;-67
2021/05/08 09:53:31;;;;;;;2.70;0.90;;;14.80;1.00;;;20.40;28.07;98311.31;5030135;28;20205;-69
2021/05/08 09:55:58;;;;;;;1.17;1.07;;;15.50;1.00;;;21.67;26.75;98304.72;5031242;28;20224;-66
2021/05/08 09:58:26;;;;;;;1.33;1.03;;;15.90;1.00;;;19.64;29.20;98311.47;5033639;28;20208;-67
2021/05/08 10:00:54;;;;;;;1.83;1.13;;;15.70;1.00;;;19.84;30.32;98299.00;5026956;28;20761;-70
2021/05/08 10:03:23;;;;;;;6.83;1.10;;;15.50;1.00;;;20.31;27.80;98304.72;5034749;28;20213;-69
2021/05/08 10:06:09;;;;;;;3.70;1.00;;;15.60;1.00;;;19.37;29.67;98295.16;5034615;28;20602;-70
2021/05/08 10:08:36;;;;;;;2.37;1.10;;;15.40;1.00;;;19.06;30.99;98289.50;5032535;28;20615;-71
2021/05/08 10:11:03;;;;;;;1.93;1.13;;;15.10;1.00;;;19.99;29.08;98284.81;5031355;28;20225;-69
2021/05/08 10:13:32;;;;;;;3.27;1.00;;;15.30;1.00;;;18.98;30.50;98281.81;5035853;28;20211;-70
2021/05/08 10:15:59;;;;;;;1.63;0.70;;;15.10;1.00;;;19.00;30.71;98277.78;5032304;28;20241;-70
2021/05/08 10:18:28;;;;;;;1.63;1.10;;;15.20;1.00;;;18.98;31.22;98269.09;5030367;28;20208;-70
2021/05/08 10:20:55;;;;;;;2.20;1.23;;;15.30;1.00;;;19.09;30.29;98273.59;5031507;28;20202;-75
2021/05/08 10:23:29;;;;;;;1.10;0.93;;;15.20;1.00;;;18.74;31.22;98269.53;5031155;28;20271;-70
2021/05/08 10:26:02;;;;;;;6.90;1.20;;;15.10;1.00;;;19.70;31.17;98265.25;5033188;28;20701;-78
2021/05/08 10:28:29;;;;;;;1.10;0.80;;;15.50;1.00;;;20.14;29.30;98264.16;5035387;28;20204;-78
2021/05/08 10:30:56;;;;;;;1.73;0.90;;;15.90;1.00;;;19.43;29.63;98252.72;5025518;28;20699;-73
2021/05/08 10:33:24;;;;;;;2.40;1.13;;;15.80;1.00;;;20.25;29.36;98252.34;5029022;28;20209;-71
2021/05/08 10:35:52;;;;;;;1.93;0.80;;;15.90;1.00;;;21.44;28.23;98253.53;5031454;28;20224;-79
2021/05/08 10:38:23;;;;;;;1.50;1.00;;;16.30;1.00;;;21.29;26.42;98256.19;5035655;28;20204;-70
2021/05/08 10:40:55;;;;;;;1.87;1.10;;;16.50;1.00;;;21.12;26.33;98253.63;5033588;28;20552;-68
2021/05/08 10:43:46;;;;;;;2.37;0.90;;;16.40;1.00;;;21.41;27.62;98248.63;5033839;28;20261;-67
2021/05/08 10:46:15;;;;;;;1.73;0.97;;;16.70;1.00;;;20.09;27.48;98244.31;5022173;28;20222;-69
2021/05/08 10:49:18;;;;;;;1.10;0.90;;;16.60;1.00;;;20.65;27.67;98236.44;5019692;28;20211;-68
2021/05/08 10:52:02;;;;;;;1.90;1.10;;;16.50;1.00;;;20.63;27.24;98237.78;5023058;28;20282;-70
2021/05/08 10:54:56;;;;;;;3.27;1.10;;;16.70;1.00;;;21.88;25.13;98227.69;5029329;28;20295;-70
2021/05/08 10:57:26;;;;;;;4.97;0.93;;;17.10;1.00;;;21.88;25.08;98238.56;5032475;28;20234;-66
2021/05/08 11:00:34;;;;;;;2.00;0.87;;;17.40;1.00;;;22.57;22.95;98250.66;5028778;28;20223;-69
2021/05/08 11:03:02;;;;;;;1.40;0.90;;;17.50;1.00;;;21.42;26.42;98213.06;5035184;28;20317;-75
2021/05/08 11:05:33;;;;;;;2.53;1.00;;;17.50;1.00;;;21.65;26.02;98228.09;5029382;28;20711;-78
2021/05/08 11:08:00;;;;;;;1.77;0.83;;;17.70;1.00;;;20.75;26.73;98222.13;5038054;28;20259;-75
2021/05/08 11:10:38;;;;;;;2.97;1.10;;;17.40;1.00;;;21.42;25.93;98217.66;5034253;28;20218;-75
2021/05/08 11:13:10;;;;;;;1.10;0.97;;;17.50;1.00;;;20.75;26.90;98211.28;5029008;28;20206;-77
2021/05/08 11:16:11;;;;;;;2.43;1.00;;;17.00;1.00;;;22.98;23.37;98220.44;5030496;28;20345;-73
2021/05/08 11:18:40;;;;;;;1.67;1.00;;;17.80;1.00;;;23.44;22.90;98229.31;5004251;28;20263;-74
2021/05/08 11:21:41;;;;;;;2.00;0.83;;;18.30;1.00;;;23.34;22.46;98222.00;5034593;28;20284;-74
2021/05/08 11:24:10;;;;;;;1.43;1.10;;;18.20;1.00;;;23.84;22.67;98213.63;5027555;28;20247;-74
2021/05/08 11:26:42;;;;;;;2.80;0.90;;;18.60;1.00;;;23.16;22.55;98213.59;5036365;28;20372;-73
2021/05/08 11:29:11;;;;;;;1.37;0.90;;;18.60;1.00;;;24.47;21.10;98222.81;5031623;28;20202;-74